Time;durP1;ratioP1;P1;durP2;ratioP2;P2;SDS_P1;SDS_P2;PMS_P1;PMS_P2;Temp;Humidity;BMP_temperature;BMP_pressure;BME280_temperature;BME280_humidity;BME280_pressure;Samples;Min_cycle;Max_cycle;Signal;HPM_P1;HPM_P2
2023/03/01 09:32:52;;;;;;;29.10;19.50;;;4.40;99.90;;;;;;5070852;28;20444;-63
2023/03/01 09:35:19;;;;;;;32.03;20.25;;;4.40;99.90;;;;;;5070482;28;20138;-65
2023/03/01 09:37:45;;;;;;;24.95;17.90;;;4.60;99.90;;;;;;5070598;28;20432;-63
2023/03/01 09:40:17;;;;;;;29.10;20.38;;;4.80;99.90;;;;;;5070390;28;20025;-65
2023/03/01 09:42:54;;;;;;;27.48;21.17;;;5.10;99.90;;;;;;5070425;28;20048;-61
2023/03/01 09:45:35;;;;;;;81.70;51.15;;;5.30;99.90;;;;;;5070468;28;20479;-64
2023/03/01 09:48:03;;;;;;;95.85;60.72;;;5.50;99.90;;;;;;5070321;28;20017;-61
2023/03/01 09:50:35;;;;;;;88.50;59.85;;;5.50;99.90;;;;;;5070393;28;20044;-65
2023/03/01 09:53:07;;;;;;;74.80;51.50;;;5.50;99.90;;;;;;5070198;28;20422;-62
2023/03/01 09:55:41;;;;;;;74.18;50.30;;;5.40;99.90;;;;;;5070128;28;20021;-63
2023/03/01 09:58:44;;;;;;;59.58;43.25;;;5.60;99.90;;;;;;5070234;28;20048;-61
2023/03/01 10:01:53;;;;;;;53.42;39.60;;;5.90;99.90;;;;;;5070132;28;20024;-64
2023/03/01 10:04:37;;;;;;;52.83;38.42;;;6.00;99.90;;;;;;5070084;28;20032;-63
2023/03/01 10:07:24;;;;;;;62.55;40.70;;;6.20;99.90;;;;;;5069912;28;20042;-65
2023/03/01 10:09:49;;;;;;;50.38;36.90;;;6.20;99.90;;;;;;5069982;28;20056;-60
2023/03/01 10:12:18;;;;;;;52.95;37.05;;;6.30;99.90;;;;;;5069770;28;20506;-64
2023/03/01 10:15:10;;;;;;;49.03;34.80;;;6.40;99.90;;;;;;5069826;28;20024;-61
2023/03/01 10:17:36;;;;;;;53.85;36.42;;;6.40;99.90;;;;;;5069681;28;20023;-61
2023/03/01 10:20:19;;;;;;;66.22;46.28;;;6.40;99.90;;;;;;5069860;28;20025;-62
2023/03/01 10:22:50;;;;;;;58.85;39.15;;;6.30;99.90;;;;;;5069390;28;20032;-62
2023/03/01 10:25:20;;;;;;;61.47;41.80;;;6.30;99.90;;;;;;5069565;28;20025;-63
2023/03/01 10:27:54;;;;;;;51.22;35.70;;;6.20;99.90;;;;;;5069452;28;20020;-64
2023/03/01 10:30:35;;;;;;;47.53;33.42;;;6.20;99.90;;;;;;5069611;28;20079;-64
2023/03/01 10:33:03;;;;;;;44.70;31.25;;;6.10;99.90;;;;;;5049585;28;20136;-61
2023/03/01 10:35:32;;;;;;;36.00;26.95;;;6.10;99.90;;;;;;5049426;28;20533;-63
2023/03/01 10:38:10;;;;;;;38.83;26.80;;;6.20;99.90;;;;;;5049289;28;20017;-64
2023/03/01 10:40:59;;;;;;;33.55;25.15;;;6.30;99.90;;;;;;5049315;28;20100;-64
2023/03/01 10:43:27;;;;;;;38.53;28.67;;;6.40;99.90;;;;;;5040461;28;20400;-65
2023/03/01 10:45:53;;;;;;;34.83;26.30;;;6.50;99.90;;;;;;5035985;28;20022;-64
2023/03/01 10:48:28;;;;;;;41.35;30.70;;;6.50;99.90;;;;;;5036017;28;20096;-64
2023/03/01 10:51:00;;;;;;;40.35;29.92;;;6.50;99.90;;;;;;5035928;28;20391;-65
2023/03/01 10:53:33;;;;;;;45.05;33.88;;;6.60;99.90;;;;;;5035676;28;20092;-63
2023/03/01 10:56:08;;;;;;;46.92;34.53;;;6.70;99.90;;;;;;5035977;28;20067;-61
2023/03/01 10:58:36;;;;;;;63.33;44.58;;;6.70;99.90;;;;;;5035735;28;20064;-65
2023/03/01 11:01:15;;;;;;;80.13;53.38;;;6.50;99.90;;;;;;5035798;28;20475;-65
2023/03/01 11:03:41;;;;;;;70.97;49.78;;;6.30;99.90;;;;;;5035667;28;20061;-63
2023/03/01 11:06:13;;;;;;;73.35;48.60;;;6.20;99.90;;;;;;5035730;28;20033;-63
2023/03/01 11:08:47;;;;;;;63.95;45.40;;;6.20;99.90;;;;;;5035640;28;20079;-61
2023/03/01 11:11:21;;;;;;;57.55;38.53;;;6.30;99.90;;;;;;5035445;28;20055;-61
2023/03/01 11:13:52;;;;;;;53.92;34.83;;;6.30;99.90;;;;;;5035590;28;20100;-64
2023/03/01 11:16:28;;;;;;;46.70;32.28;;;6.40;99.90;;;;;;5035561;28;20025;-63
2023/03/01 11:18:59;;;;;;;45.33;31.05;;;6.20;99.90;;;;;;5035476;28;20025;-64
2023/03/01 11:21:28;;;;;;;40.97;28.88;;;6.10;99.90;;;;;;5035239;28;20060;-65
2023/03/01 11:23:54;;;;;;;40.75;25.85;;;6.10;99.90;;;;;;5035329;28;20018;-62
2023/03/01 11:26:20;;;;;;;38.85;27.85;;;6.20;99.90;;;;;;5035416;28;20467;-65
2023/03/01 11:28:53;;;;;;;50.10;29.50;;;6.40;99.90;;;;;;5035334;28;20013;-61
2023/03/01 11:31:20;;;;;;;45.53;29.35;;;6.40;99.90;;;;;;5034772;28;20069;-63
2023/03/01 11:34:18;;;;;;;43.95;28.90;;;6.30;99.90;;;;;;5035160;28;20068;-61
2023/03/01 11:36:54;;;;;;;50.20;32.85;;;6.20;99.90;;;;;;5029970;28;20044;-60
2023/03/01 11:39:38;;;;;;;40.13;28.25;;;6.20;99.90;;;;;;5035117;28;20471;-64
2023/03/01 11:42:15;;;;;;;35.17;25.80;;;6.20;99.90;;;;;;5035127;28;20051;-64
2023/03/01 11:44:43;;;;;;;35.28;25.50;;;6.30;99.90;;;;;;5035000;28;20029;-63
2023/03/01 11:47:30;;;;;;;36.88;24.50;;;6.40;99.90;;;;;;5035047;28;20387;-65
2023/03/01 11:50:19;;;;;;;39.45;27.27;;;6.40;99.90;;;;;;5034648;28;20025;-61
2023/03/01 11:53:00;;;;;;;38.45;26.75;;;6.50;99.90;;;;;;5034366;28;20092;-64
2023/03/01 11:56:04;;;;;;;41.03;29.35;;;6.40;99.90;;;;;;5033670;28;20023;-65
2023/03/01 11:58:59;;;;;;;41.42;27.00;;;6.50;99.90;;;;;;5034666;28;20075;-63
2023/03/01 12:01:44;;;;;;;37.00;25.92;;;6.70;99.90;;;;;;5034633;28;20030;-63
2023/03/01 12:04:18;;;;;;;42.63;29.33;;;6.70;99.90;;;;;;5034444;28;20017;-65
2023/03/01 12:06:57;;;;;;;35.80;25.00;;;6.80;99.90;;;;;;5034547;28;20060;-63
2023/03/01 12:09:51;;;;;;;33.85;24.67;;;6.90;99.90;;;;;;5034475;28;20464;-61
2023/03/01 12:12:17;;;;;;;52.97;33.20;;;7.00;99.90;;;;;;5034309;28;20026;-62
2023/03/01 12:14:52;;;;;;;46.47;32.63;;;7.00;99.90;;;;;;5034377;28;20048;-64
2023/03/01 12:17:44;;;;;;;53.17;36.47;;;7.10;99.90;;;;;;5034318;28;20027;-61
2023/03/01 12:20:25;;;;;;;48.25;34.42;;;7.00;99.90;;;;;;5034293;28;20022;-60
2023/03/01 12:23:03;;;;;;;78.22;49.10;;;7.10;99.90;;;;;;5034166;28;20029;-62
2023/03/01 12:25:37;;;;;;;93.60;59.20;;;7.20;99.90;;;;;;5034208;28;20025;-62
2023/03/01 12:28:09;;;;;;;90.40;55.47;;;7.20;99.90;;;;;;5034054;28;20022;-60
2023/03/01 12:30:53;;;;;;;72.88;48.20;;;7.00;99.90;;;;;;5033677;28;20480;-61
2023/03/01 12:33:39;;;;;;;;;;;7.00;99.90;;;;;;5034254;28;20059;-64
2023/03/01 12:36:19;;;;;;;58.00;40.45;;;7.10;99.90;;;;;;5033888;28;19905;-62
2023/03/01 12:39:09;;;;;;;57.35;41.05;;;7.30;99.90;;;;;;5033993;28;20025;-61
2023/03/01 12:41:35;;;;;;;55.30;39.83;;;7.30;99.90;;;;;;5033819;28;20052;-61
2023/03/01 12:44:31;;;;;;;54.60;38.42;;;7.40;99.90;;;;;;5033886;28;20475;-63
2023/03/01 12:47:17;;;;;;;55.17;38.58;;;7.50;99.90;;;;;;5033601;28;20049;-64
2023/03/01 12:49:57;;;;;;;56.42;39.95;;;7.60;99.90;;;;;;5033759;28;20028;-61
2023/03/01 12:52:29;;;;;;;75.90;48.22;;;7.70;99.90;;;;;;5033652;28;20104;-63
2023/03/01 12:54:58;;;;;;;60.85;41.65;;;7.60;99.90;;;;;;5033678;28;20076;-62
2023/03/01 12:57:36;;;;;;;79.15;51.58;;;7.60;99.90;;;;;;5033597;28;20056;-61
2023/03/01 13:00:31;;;;;;;68.60;48.95;;;7.70;99.90;;;;;;5033601;28;20386;-62
2023/03/01 13:03:48;;;;;;;67.90;47.40;;;7.70;99.90;;;;;;5033549;28;20459;-62
2023/03/01 13:06:21;;;;;;;63.38;44.47;;;7.70;99.90;;;;;;5011610;28;20022;-62
2023/03/01 13:09:00;;;;;;;68.50;43.97;;;7.70;99.90;;;;;;5032383;28;20041;-64
2023/03/01 13:11:26;;;;;;;73.20;47.03;;;7.70;99.90;;;;;;5033504;28;20037;-65
2023/03/01 13:13:54;;;;;;;70.03;46.05;;;7.50;99.90;;;;;;5033735;28;20029;-65
2023/03/01 13:16:39;;;;;;;54.25;39.30;;;7.50;99.90;;;;;;5033168;28;20022;-61
2023/03/01 13:19:16;;;;;;;54.92;37.65;;;7.40;99.90;;;;;;5033422;28;20018;-64
2023/03/01 13:21:44;;;;;;;56.08;37.90;;;7.50;99.90;;;;;;5033267;28;20036;-64
2023/03/01 13:24:43;;;;;;;48.08;34.47;;;7.50;99.90;;;;;;5032078;28;20030;-63
2023/03/01 13:27:29;;;;;;;50.80;32.92;;;7.50;99.90;;;;;;5021632;28;20042;-60
2023/03/01 13:30:05;;;;;;;57.20;37.30;;;7.50;99.90;;;;;;5033324;28;20024;-63
2023/03/01 13:32:38;;;;;;;68.93;44.72;;;7.50;99.90;;;;;;5032673;28;20049;-61
2023/03/01 13:35:26;;;;;;;57.90;38.40;;;7.30;99.90;;;;;;5033266;28;20021;-64
2023/03/01 13:37:52;;;;;;;57.35;38.15;;;7.30;99.90;;;;;;5032995;28;20040;-61
2023/03/01 13:40:18;;;;;;;59.22;42.60;;;7.30;99.90;;;;;;5033189;28;20022;-61
2023/03/01 13:42:52;;;;;;;48.53;36.35;;;7.20;99.90;;;;;;5033074;28;20028;-64
2023/03/01 13:45:28;;;;;;;58.80;42.50;;;7.20;99.90;;;;;;5032922;28;20379;-64
2023/03/01 13:48:09;;;;;;;59.97;40.65;;;7.20;99.90;;;;;;5032994;28;20026;-62
2023/03/01 13:50:45;;;;;;;67.15;44.08;;;7.20;99.90;;;;;;5033039;28;20022;-63
2023/03/01 13:53:18;;;;;;;54.03;37.22;;;7.20;99.90;;;;;;5032970;28;20022;-62
2023/03/01 13:55:59;;;;;;;65.88;40.58;;;7.10;99.90;;;;;;5033072;28;20018;-64
2023/03/01 13:58:43;;;;;;;58.22;37.92;;;7.10;99.90;;;;;;5032909;28;20096;-64
2023/03/01 14:01:33;;;;;;;74.00;43.65;;;7.10;99.90;;;;;;5032812;28;20108;-64
2023/03/01 14:04:00;;;;;;;61.45;39.58;;;7.00;99.90;;;;;;5033078;28;20064;-62
2023/03/01 14:06:30;;;;;;;56.05;36.83;;;7.00;99.90;;;;;;5032909;28;20021;-63
2023/03/01 14:09:11;;;;;;;57.65;36.50;;;7.00;99.90;;;;;;5032783;28;20549;-61
2023/03/01 14:12:06;;;;;;;66.35;43.88;;;7.10;99.90;;;;;;5032836;28;20057;-64
2023/03/01 14:14:45;;;;;;;86.32;52.25;;;7.10;99.90;;;;;;5032381;28;20068;-64
2023/03/01 14:17:41;;;;;;;94.60;59.22;;;7.00;99.90;;;;;;5032811;28;20032;-62
2023/03/01 14:20:23;;;;;;;73.22;47.05;;;7.00;99.90;;;;;;5036555;28;20044;-63
2023/03/01 14:22:52;;;;;;;73.85;47.25;;;6.90;99.90;;;;;;5036387;28;20067;-64
2023/03/01 14:25:38;;;;;;;66.72;44.33;;;7.00;99.90;;;;;;5036448;28;20025;-64
2023/03/01 14:28:18;;;;;;;59.75;42.40;;;7.00;99.90;;;;;;5036300;28;20021;-62
2023/03/01 14:30:49;;;;;;;50.20;37.47;;;7.00;99.90;;;;;;5035836;28;20427;-62
2023/03/01 14:33:23;;;;;;;44.10;33.35;;;7.10;99.90;;;;;;5036254;28;20026;-63
2023/03/01 14:35:58;;;;;;;47.40;32.90;;;7.20;99.90;;;;;;5036306;28;20064;-62
2023/03/01 14:38:35;;;;;;;44.03;30.75;;;7.10;99.90;;;;;;5036197;28;20104;-62
2023/03/01 14:41:18;;;;;;;40.72;30.67;;;7.10;99.90;;;;;;5036159;28;20029;-62
2023/03/01 14:43:47;;;;;;;41.03;29.17;;;7.10;99.90;;;;;;5035953;28;20014;-63
2023/03/01 14:46:23;;;;;;;44.55;28.48;;;7.20;99.90;;;;;;5036077;28;20029;-65
2023/03/01 14:48:52;;;;;;;44.40;30.60;;;7.20;99.90;;;;;;5036004;28;20034;-61
2023/03/01 14:51:18;;;;;;;36.67;26.13;;;7.20;99.90;;;;;;5036396;28;20022;-60
2023/03/01 14:53:43;;;;;;;36.70;25.58;;;7.20;99.90;;;;;;5036011;28;20017;-60
2023/03/01 14:56:14;;;;;;;35.33;25.70;;;7.20;99.90;;;;;;5036035;28;20025;-61
2023/03/01 14:58:39;;;;;;;43.30;31.10;;;7.10;99.90;;;;;;5035630;28;20049;-61
2023/03/01 15:01:06;;;;;;;61.70;39.83;;;7.20;99.90;;;;;;5035913;28;20084;-61
2023/03/01 15:03:43;;;;;;;67.72;44.42;;;7.20;99.90;;;;;;5035806;28;20021;-64
2023/03/01 15:06:14;;;;;;;92.22;55.28;;;7.10;99.90;;;;;;5035885;28;20075;-64
